createdAt,value
2023-04-01T00:01:50.630Z,4.57
2023-04-01T00:04:17.899Z,7.32
2023-04-01T00:06:45.130Z,9.32
2023-04-01T00:09:12.031Z,5.63
2023-04-01T00:11:39.726Z,7.85
2023-04-01T00:14:08.813Z,7.82
2023-04-01T00:16:36.331Z,6.63
2023-04-01T00:19:04.010Z,7.32
2023-04-01T00:21:31.531Z,7.20
2023-04-01T00:23:58.923Z,19.98
2023-04-01T00:26:26.625Z,9.15
2023-04-01T00:28:53.936Z,14.80
2023-04-01T00:31:21.831Z,35.17
2023-04-01T00:33:49.164Z,33.77
2023-04-01T00:36:19.080Z,24.80
2023-04-01T00:38:47.058Z,8.57
2023-04-01T00:41:15.986Z,8.65
2023-04-01T00:43:44.803Z,8.55
2023-04-01T00:46:12.537Z,6.60
2023-04-01T00:48:43.439Z,5.25
2023-04-01T00:51:15.042Z,6.63
2023-04-01T00:53:45.417Z,9.50
2023-04-01T00:56:16.689Z,9.60
2023-04-01T00:58:49.190Z,6.20
2023-04-01T01:01:16.909Z,6.78
2023-04-01T01:03:43.910Z,5.65
2023-04-01T01:06:32.531Z,5.28
2023-04-01T01:09:14.781Z,6.50
2023-04-01T01:12:23.335Z,4.90
2023-04-01T01:15:14.924Z,5.90
2023-04-01T01:18:07.145Z,5.38
2023-04-01T01:21:04.701Z,6.93
2023-04-01T01:24:04.502Z,5.85
2023-04-01T01:26:50.211Z,5.03
2023-04-01T01:29:32.651Z,3.85
2023-04-01T01:32:11.903Z,3.47
2023-04-01T01:35:11.420Z,26.00
2023-04-01T01:37:41.024Z,21.20
2023-04-01T01:40:12.674Z,18.33
2023-04-01T01:42:46.655Z,7.22
2023-04-01T01:45:19.028Z,8.50
2023-04-01T01:47:48.740Z,27.75
2023-04-01T01:50:18.043Z,39.13
2023-04-01T01:52:44.986Z,16.90
2023-04-01T01:55:51.356Z,36.08
2023-04-01T01:58:28.306Z,36.17
2023-04-01T02:00:58.497Z,51.55
2023-04-01T02:03:29.222Z,26.05
2023-04-01T02:06:00.239Z,15.80
2023-04-01T02:08:46.293Z,10.77
2023-04-01T02:11:21.098Z,11.73
2023-04-01T02:13:58.034Z,7.82
2023-04-01T02:16:32.328Z,10.30
2023-04-01T02:19:00.763Z,15.50
2023-04-01T02:21:31.894Z,13.85
2023-04-01T02:24:01.913Z,14.25
2023-04-01T02:26:29.545Z,19.45
2023-04-01T02:28:58.409Z,14.75
2023-04-01T02:31:26.628Z,9.40
2023-04-01T02:33:54.808Z,5.82
2023-04-01T02:36:22.310Z,11.05
2023-04-01T02:38:51.201Z,10.48
2023-04-01T02:41:18.405Z,13.90
2023-04-01T02:43:45.472Z,25.90
2023-04-01T02:46:12.750Z,11.68
2023-04-01T02:48:39.702Z,11.15
2023-04-01T02:51:07.345Z,6.25
2023-04-01T02:53:34.226Z,11.45
2023-04-01T02:56:01.468Z,13.27
2023-04-01T02:58:28.374Z,10.43
2023-04-01T03:00:55.697Z,12.10
2023-04-01T03:03:22.694Z,15.07
2023-04-01T03:05:50.275Z,9.57
2023-04-01T03:08:17.194Z,10.93
2023-04-01T03:10:44.724Z,6.00
2023-04-01T03:13:12.068Z,7.57
2023-04-01T03:15:39.323Z,7.93
2023-04-01T03:18:06.329Z,8.73
2023-04-01T03:20:33.744Z,6.30
2023-04-01T03:23:00.629Z,7.60
2023-04-01T03:25:29.844Z,5.32
2023-04-01T03:27:56.925Z,6.50
2023-04-01T03:30:24.210Z,6.82
2023-04-01T03:32:51.664Z,7.00
2023-04-01T03:35:19.484Z,6.93
2023-04-01T03:37:46.701Z,5.00
2023-04-01T03:40:14.370Z,7.22
2023-04-01T03:42:41.500Z,10.95
2023-04-01T03:45:10.302Z,9.33
2023-04-01T03:47:37.306Z,11.45
2023-04-01T03:50:05.226Z,15.15
2023-04-01T03:52:32.258Z,12.25
2023-04-01T03:54:59.719Z,6.68
2023-04-01T03:57:27.595Z,6.77
2023-04-01T03:59:59.447Z,11.98
2023-04-01T04:02:29.969Z,11.13
2023-04-01T04:04:57.439Z,8.32
2023-04-01T04:07:24.690Z,5.22
2023-04-01T04:10:01.530Z,4.57
2023-04-01T04:12:28.441Z,7.53
2023-04-01T04:14:55.916Z,9.18
2023-04-01T04:17:22.917Z,5.28
2023-04-01T04:19:50.428Z,6.65
2023-04-01T04:22:17.435Z,6.13
2023-04-01T04:24:44.802Z,5.88
2023-04-01T04:27:13.558Z,4.97
2023-04-01T04:29:53.510Z,9.30
2023-04-01T04:32:20.453Z,5.80
2023-04-01T04:34:47.750Z,4.70
2023-04-01T04:37:14.812Z,6.32
2023-04-01T04:39:42.078Z,9.23
2023-04-01T04:42:09.095Z,15.07
2023-04-01T04:44:36.525Z,18.20
2023-04-01T04:47:03.597Z,18.67
2023-04-01T04:49:31.302Z,25.77
2023-04-01T04:51:58.497Z,13.38
2023-04-01T04:54:27.904Z,6.78
2023-04-01T04:56:57.247Z,5.07
2023-04-01T04:59:26.398Z,9.43
2023-04-01T05:02:07.544Z,5.32
2023-04-01T05:04:38.115Z,4.30
2023-04-01T05:07:07.492Z,7.00
2023-04-01T05:09:35.112Z,5.93
2023-04-01T05:12:03.447Z,6.43
2023-04-01T05:14:44.214Z,4.45
2023-04-01T05:17:14.425Z,3.63
2023-04-01T05:19:41.597Z,9.52
2023-04-01T05:22:09.482Z,6.72
2023-04-01T05:24:37.119Z,6.63
2023-04-01T05:27:03.992Z,4.97
2023-04-01T05:29:31.279Z,6.90
2023-04-01T05:32:05.168Z,11.63
2023-04-01T05:34:32.842Z,9.68
2023-04-01T05:36:59.845Z,7.63
2023-04-01T05:39:27.450Z,11.18
2023-04-01T05:41:54.509Z,11.85
2023-04-01T05:44:21.827Z,11.38
2023-04-01T05:47:20.882Z,11.85
2023-04-01T05:49:48.657Z,8.53
2023-04-01T05:52:15.793Z,5.47
2023-04-01T05:54:43.062Z,7.82
2023-04-01T05:57:10.132Z,7.13
2023-04-01T05:59:37.400Z,6.13
2023-04-01T06:02:04.547Z,6.87
2023-04-01T06:04:39.692Z,5.45
2023-04-01T06:07:16.016Z,7.78
2023-04-01T06:09:44.730Z,7.78
2023-04-01T06:12:26.232Z,6.22
2023-04-01T06:15:13.509Z,4.50
2023-04-01T06:18:18.142Z,5.55
2023-04-01T06:21:20.196Z,3.78
2023-04-01T06:24:22.918Z,7.80
2023-04-01T06:27:11.366Z,7.22
2023-04-01T06:29:51.269Z,6.30
2023-04-01T06:32:32.291Z,5.05
2023-04-01T06:35:11.494Z,4.80
2023-04-01T06:37:46.997Z,5.03
2023-04-01T06:40:41.650Z,6.13
2023-04-01T06:43:20.043Z,5.40
2023-04-01T06:46:45.943Z,4.25
2023-04-01T06:49:34.687Z,4.00
2023-04-01T06:52:28.094Z,4.35
2023-04-01T06:55:31.012Z,4.68
2023-04-01T06:58:31.437Z,4.40
2023-04-01T07:01:03.341Z,5.30
2023-04-01T07:03:37.730Z,4.85
2023-04-01T07:06:12.714Z,5.00
2023-04-01T07:08:50.724Z,4.70
2023-04-01T07:11:27.588Z,3.60
2023-04-01T07:14:35.954Z,6.22
2023-04-01T07:17:13.236Z,6.47
2023-04-01T07:19:48.290Z,4.72
2023-04-01T07:22:22.315Z,5.82
2023-04-01T07:25:17.737Z,6.10
2023-04-01T07:27:51.450Z,7.13
2023-04-01T07:30:21.473Z,7.18
2023-04-01T07:33:20.888Z,6.43
2023-04-01T07:35:58.361Z,9.48
2023-04-01T07:38:49.990Z,7.33
2023-04-01T07:42:02.614Z,6.75
2023-04-01T07:44:38.408Z,13.07
2023-04-01T07:47:26.892Z,16.92
2023-04-01T07:50:22.629Z,10.05
2023-04-01T07:52:49.570Z,12.38
2023-04-01T07:55:35.993Z,14.83
2023-04-01T07:58:26.352Z,12.15
2023-04-01T08:01:20.411Z,11.77
2023-04-01T08:04:03.400Z,33.70
2023-04-01T08:06:44.052Z,17.40
2023-04-01T08:09:21.772Z,18.43
2023-04-01T08:12:52.471Z,41.50
2023-04-01T08:16:05.827Z,35.83
2023-04-01T08:19:10.996Z,27.80
2023-04-01T08:22:10.162Z,43.50
2023-04-01T08:24:48.126Z,11.30
2023-04-01T08:27:28.161Z,8.90
2023-04-01T08:30:02.795Z,23.55
2023-04-01T08:32:38.291Z,10.38
2023-04-01T08:35:18.559Z,8.93
2023-04-01T08:37:47.465Z,5.60
2023-04-01T08:40:36.930Z,5.20
2023-04-01T08:43:10.233Z,7.75
2023-04-01T08:46:15.081Z,13.50
2023-04-01T08:49:01.544Z,4.65
2023-04-01T08:52:08.882Z,3.57
2023-04-01T08:55:04.227Z,8.93
2023-04-01T08:58:19.852Z,16.90
2023-04-01T09:01:16.886Z,10.07
2023-04-01T09:04:14.907Z,4.32
2023-04-01T09:07:10.940Z,4.57
2023-04-01T09:09:52.898Z,9.25
2023-04-01T09:12:38.328Z,11.52
2023-04-01T09:15:27.157Z,7.10
2023-04-01T09:18:38.243Z,9.82
2023-04-01T09:21:26.458Z,7.77
2023-04-01T09:24:27.241Z,8.85
2023-04-01T09:27:05.607Z,7.03
2023-04-01T09:29:51.663Z,11.18
2023-04-01T09:32:37.147Z,23.85
2023-04-01T09:35:24.562Z,12.93
2023-04-01T09:38:18.816Z,18.95
2023-04-01T09:40:59.443Z,23.10
2023-04-01T09:43:53.951Z,64.72
2023-04-01T09:46:32.448Z,26.73
2023-04-01T09:49:18.468Z,34.90
2023-04-01T09:52:38.142Z,31.27
2023-04-01T09:55:25.682Z,8.00
2023-04-01T09:58:11.367Z,8.23
2023-04-01T10:01:33.352Z,6.85
2023-04-01T10:04:16.816Z,6.90
2023-04-01T10:06:44.342Z,5.60
2023-04-01T10:09:29.743Z,5.07
2023-04-01T10:12:12.040Z,4.50
2023-04-01T10:14:56.527Z,5.60
2023-04-01T10:17:43.530Z,16.50
2023-04-01T10:20:26.608Z,8.20
2023-04-01T10:23:18.862Z,6.05
2023-04-01T10:25:55.157Z,4.32
2023-04-01T10:28:38.091Z,4.30
2023-04-01T10:31:48.944Z,9.70
2023-04-01T10:34:54.969Z,7.93
2023-04-01T10:37:32.072Z,8.70
2023-04-01T10:40:26.644Z,9.07
2023-04-01T10:43:53.909Z,35.55
2023-04-01T10:46:47.413Z,8.90
2023-04-01T10:49:51.722Z,23.23
2023-04-01T10:52:35.679Z,13.50
2023-04-01T10:55:41.935Z,18.27
2023-04-01T10:59:01.907Z,18.60
2023-04-01T11:02:29.027Z,16.97
2023-04-01T11:05:27.054Z,11.43
2023-04-01T11:08:06.438Z,3.78
2023-04-01T11:10:54.623Z,4.03
2023-04-01T11:13:43.400Z,11.57
2023-04-01T11:16:10.649Z,7.20
2023-04-01T11:19:15.269Z,2.53
2023-04-01T11:22:00.633Z,3.38
2023-04-01T11:25:04.232Z,6.35
2023-04-01T11:27:51.385Z,4.40
2023-04-01T11:31:01.586Z,3.10
2023-04-01T11:33:38.101Z,3.55
2023-04-01T11:36:26.348Z,3.30
2023-04-01T11:39:05.104Z,3.05
2023-04-01T11:41:55.906Z,4.45
2023-04-01T11:44:54.774Z,2.53
2023-04-01T11:47:50.193Z,2.72
2023-04-01T11:50:43.561Z,3.03
2023-04-01T11:53:35.692Z,2.47
2023-04-01T11:56:44.980Z,3.05
2023-04-01T11:59:43.981Z,4.33
2023-04-01T12:02:11.579Z,3.92
2023-04-01T12:05:09.096Z,2.70
2023-04-01T12:08:15.901Z,2.35
2023-04-01T12:11:16.795Z,2.53
2023-04-01T12:13:54.911Z,3.40
2023-04-01T12:16:33.910Z,2.72
2023-04-01T12:19:13.026Z,2.78
2023-04-01T12:21:53.718Z,4.00
2023-04-01T12:24:39.775Z,2.10
2023-04-01T12:27:12.765Z,2.37
2023-04-01T12:29:49.339Z,2.72
2023-04-01T12:32:31.512Z,2.50
2023-04-01T12:35:02.200Z,3.60
2023-04-01T12:37:43.036Z,3.75
2023-04-01T12:40:10.216Z,4.00
2023-04-01T12:43:14.843Z,2.70
2023-04-01T12:46:01.405Z,2.80
2023-04-01T12:49:02.660Z,5.45
2023-04-01T12:51:38.881Z,5.85
2023-04-01T12:54:31.152Z,4.63
2023-04-01T12:57:04.039Z,11.18
2023-04-01T12:59:30.964Z,12.10
2023-04-01T13:02:06.677Z,13.70
2023-04-01T13:04:48.962Z,3.75
2023-04-01T13:07:44.210Z,6.43
2023-04-01T13:10:28.743Z,7.95
2023-04-01T13:13:27.697Z,18.92
2023-04-01T13:16:25.352Z,24.50
2023-04-01T13:19:02.160Z,5.85
2023-04-01T13:21:53.209Z,11.10
2023-04-01T13:24:55.522Z,10.77
2023-04-01T13:27:43.465Z,20.20
2023-04-01T13:30:31.823Z,9.40
2023-04-01T13:33:32.243Z,7.03
2023-04-01T13:36:32.710Z,3.73
2023-04-01T13:39:02.579Z,4.50
2023-04-01T13:41:44.957Z,7.68
2023-04-01T13:44:34.750Z,4.20
2023-04-01T13:47:27.180Z,6.15
2023-04-01T13:50:11.302Z,3.37
2023-04-01T13:53:00.092Z,11.73
2023-04-01T13:55:58.877Z,6.00
2023-04-01T13:58:50.471Z,16.35
2023-04-01T14:01:36.143Z,48.35
2023-04-01T14:04:21.685Z,39.50
2023-04-01T14:07:27.739Z,12.70
2023-04-01T14:10:10.419Z,34.28
2023-04-01T14:12:52.448Z,14.65
2023-04-01T14:15:41.379Z,19.83
2023-04-01T14:18:26.549Z,11.40
2023-04-01T14:21:15.154Z,12.80
2023-04-01T14:23:57.923Z,12.70
2023-04-01T14:26:43.336Z,25.27
2023-04-01T14:29:22.552Z,8.23
2023-04-01T14:32:08.983Z,8.70
2023-04-01T14:34:42.961Z,13.75
2023-04-01T14:37:31.380Z,7.63
2023-04-01T14:40:21.279Z,5.88
2023-04-01T14:42:54.684Z,5.38
2023-04-01T14:45:36.790Z,3.90
2023-04-01T14:48:24.266Z,4.63
2023-04-01T14:50:54.555Z,5.53
2023-04-01T14:53:24.904Z,3.75
2023-04-01T14:55:54.431Z,14.88
2023-04-01T14:58:26.391Z,7.10
2023-04-01T15:01:05.962Z,8.23
2023-04-01T15:04:15.630Z,7.30
2023-04-01T15:07:33.759Z,15.95
2023-04-01T15:10:21.108Z,11.88
2023-04-01T15:13:21.831Z,17.20
2023-04-01T15:16:20.205Z,13.43
2023-04-01T15:18:50.113Z,14.85
2023-04-01T15:21:27.200Z,24.25
2023-04-01T15:24:22.582Z,18.83
2023-04-01T15:27:08.899Z,12.97
2023-04-01T15:30:06.601Z,7.90
2023-04-01T15:32:46.444Z,10.27
2023-04-01T15:35:24.979Z,22.00
2023-04-01T15:37:56.510Z,12.30
2023-04-01T15:40:37.902Z,19.13
2023-04-01T15:43:45.001Z,32.63
2023-04-01T15:46:49.909Z,17.05
2023-04-01T15:49:31.893Z,15.00
2023-04-01T15:52:07.443Z,9.63
2023-04-01T15:55:11.706Z,8.00
2023-04-01T15:58:16.558Z,5.38
2023-04-01T16:00:51.121Z,7.53
2023-04-01T16:03:47.986Z,7.70
2023-04-01T16:06:24.132Z,15.95
2023-04-01T16:09:09.814Z,9.13
2023-04-01T16:11:45.979Z,6.80
2023-04-01T16:14:31.243Z,7.13
2023-04-01T16:17:17.958Z,7.07
2023-04-01T16:19:54.183Z,12.43
2023-04-01T16:22:41.744Z,9.00
2023-04-01T16:25:08.587Z,8.77
2023-04-01T16:27:52.610Z,17.38
2023-04-01T16:30:41.992Z,11.88
2023-04-01T16:33:35.795Z,16.77
2023-04-01T16:36:15.423Z,9.77
2023-04-01T16:39:17.142Z,17.08
2023-04-01T16:42:29.591Z,13.15
2023-04-01T16:45:08.686Z,49.53
2023-04-01T16:47:49.184Z,36.25
2023-04-01T16:50:32.719Z,23.53
2023-04-01T16:53:17.023Z,22.30
2023-04-01T16:55:54.244Z,38.85
2023-04-01T16:58:41.241Z,25.75
2023-04-01T17:01:24.344Z,33.88
2023-04-01T17:03:58.489Z,14.17
2023-04-01T17:06:36.280Z,7.05
2023-04-01T17:09:15.910Z,9.90
2023-04-01T17:12:02.642Z,10.07
2023-04-01T17:14:41.683Z,5.05
2023-04-01T17:17:19.433Z,4.40
2023-04-01T17:20:14.072Z,2.90
2023-04-01T17:22:57.138Z,4.80
2023-04-01T17:25:39.642Z,3.20
2023-04-01T17:28:46.058Z,3.53
2023-04-01T17:31:38.841Z,2.90
2023-04-01T17:34:25.117Z,3.08
2023-04-01T17:36:54.656Z,4.00
2023-04-01T17:40:06.151Z,3.47
2023-04-01T17:42:43.905Z,4.40
2023-04-01T17:45:24.065Z,4.83
2023-04-01T17:47:57.420Z,4.25
2023-04-01T17:50:46.759Z,4.95
2023-04-01T17:53:25.979Z,6.00
2023-04-01T17:56:11.564Z,6.10
2023-04-01T17:58:51.890Z,5.30
2023-04-01T18:02:02.875Z,18.65
2023-04-01T18:04:45.131Z,8.82
2023-04-01T18:07:32.082Z,5.78
2023-04-01T18:10:49.545Z,13.60
2023-04-01T18:13:32.734Z,14.40
2023-04-01T18:16:36.761Z,9.32
2023-04-01T18:19:25.392Z,13.45
2023-04-01T18:21:57.112Z,11.05
2023-04-01T18:24:31.916Z,15.13
2023-04-01T18:27:06.484Z,13.57
2023-04-01T18:29:57.048Z,10.83
2023-04-01T18:32:38.128Z,17.67
2023-04-01T18:35:43.045Z,17.58
2023-04-01T18:38:30.910Z,28.98
2023-04-01T18:41:20.133Z,17.92
2023-04-01T18:43:59.730Z,16.87
2023-04-01T18:47:04.663Z,14.57
2023-04-01T18:49:53.269Z,16.77
2023-04-01T18:52:28.829Z,22.25
2023-04-01T18:55:04.611Z,19.05
2023-04-01T18:57:49.364Z,20.87
2023-04-01T19:00:23.832Z,26.13
2023-04-01T19:03:23.605Z,17.20
2023-04-01T19:05:54.425Z,12.90
2023-04-01T19:08:41.804Z,14.70
2023-04-01T19:11:16.636Z,13.17
2023-04-01T19:14:01.762Z,9.35
2023-04-01T19:16:31.719Z,5.40
2023-04-01T19:19:37.601Z,5.57
2023-04-01T19:22:29.012Z,4.75
2023-04-01T19:25:27.866Z,8.80
2023-04-01T19:28:03.514Z,10.13
2023-04-01T19:30:36.961Z,11.55
2023-04-01T19:33:20.579Z,8.35
2023-04-01T19:36:01.942Z,12.50
2023-04-01T19:38:36.073Z,11.70
2023-04-01T19:41:42.006Z,6.23
2023-04-01T19:44:42.582Z,4.65
2023-04-01T19:47:43.429Z,5.07
2023-04-01T19:50:27.675Z,5.25
2023-04-01T19:53:00.510Z,6.60
2023-04-01T19:55:34.707Z,18.87
2023-04-01T19:58:33.290Z,10.15
2023-04-01T20:01:01.693Z,17.55
2023-04-01T20:03:42.809Z,12.30
2023-04-01T20:06:33.881Z,9.02
2023-04-01T20:09:23.114Z,5.63
2023-04-01T20:12:27.431Z,8.07
2023-04-01T20:14:58.285Z,5.18
2023-04-01T20:17:31.049Z,7.70
2023-04-01T20:20:02.528Z,5.97
2023-04-01T20:23:04.697Z,6.68
2023-04-01T20:25:40.443Z,4.27
2023-04-01T20:28:10.391Z,5.07
2023-04-01T20:30:37.721Z,5.70
2023-04-01T20:33:35.143Z,6.40
2023-04-01T20:36:22.813Z,7.45
2023-04-01T20:39:35.082Z,14.07
2023-04-01T20:42:34.758Z,11.50
2023-04-01T20:45:19.797Z,18.23
2023-04-01T20:48:12.322Z,12.02
2023-04-01T20:50:52.167Z,6.25
2023-04-01T20:53:45.904Z,4.13
2023-04-01T20:56:25.165Z,4.17
2023-04-01T20:59:04.184Z,4.35
2023-04-01T21:02:15.864Z,4.97
2023-04-01T21:04:49.105Z,5.88
2023-04-01T21:07:33.515Z,4.50
2023-04-01T21:10:25.816Z,3.40
2023-04-01T21:13:01.788Z,3.85
2023-04-01T21:15:43.857Z,3.97
2023-04-01T21:18:47.043Z,4.00
2023-04-01T21:21:17.054Z,2.90
2023-04-01T21:24:02.704Z,4.10
2023-04-01T21:27:09.771Z,4.00
2023-04-01T21:30:01.491Z,3.08
2023-04-01T21:32:47.416Z,3.30
2023-04-01T21:35:37.647Z,4.13
2023-04-01T21:38:27.093Z,3.33
2023-04-01T21:41:11.717Z,3.35
2023-04-01T21:44:41.959Z,6.60
2023-04-01T21:47:42.180Z,4.90
2023-04-01T21:50:35.397Z,4.40
2023-04-01T21:53:32.468Z,5.47
2023-04-01T21:56:37.566Z,6.38
2023-04-01T21:59:41.902Z,4.78
2023-04-01T22:02:24.956Z,5.95
2023-04-01T22:05:00.028Z,5.45
2023-04-01T22:07:38.305Z,5.10
2023-04-01T22:10:23.280Z,6.38
2023-04-01T22:13:01.839Z,6.78
2023-04-01T22:15:56.935Z,9.55
2023-04-01T22:18:40.110Z,7.82
2023-04-01T22:21:28.273Z,5.77
2023-04-01T22:24:26.042Z,3.70
2023-04-01T22:27:02.000Z,4.43
2023-04-01T22:29:52.020Z,3.83
2023-04-01T22:32:48.593Z,5.53
2023-04-01T22:35:46.784Z,5.80
2023-04-01T22:38:39.260Z,5.87
2023-04-01T22:41:14.921Z,5.18
2023-04-01T22:43:44.912Z,6.32
2023-04-01T22:46:25.758Z,5.63
2023-04-01T22:49:10.702Z,6.63
2023-04-01T22:52:04.437Z,7.27
2023-04-01T22:54:59.046Z,7.88
2023-04-01T22:57:57.321Z,7.32
2023-04-01T23:00:31.256Z,5.70
2023-04-01T23:03:22.619Z,7.38
2023-04-01T23:05:58.400Z,7.23
2023-04-01T23:08:43.974Z,5.93
2023-04-01T23:11:18.356Z,5.57
2023-04-01T23:13:53.755Z,5.28
2023-04-01T23:16:46.402Z,9.13
2023-04-01T23:19:26.096Z,8.47
2023-04-01T23:22:07.572Z,7.43
2023-04-01T23:24:48.962Z,5.88
2023-04-01T23:27:41.767Z,6.03
2023-04-01T23:30:39.715Z,6.05
2023-04-01T23:33:27.517Z,3.97
2023-04-01T23:36:06.583Z,5.85
2023-04-01T23:38:38.994Z,8.20
2023-04-01T23:41:07.261Z,7.47
2023-04-01T23:43:40.536Z,7.57
2023-04-01T23:46:09.021Z,6.93
2023-04-01T23:48:42.196Z,6.05
2023-04-01T23:51:19.208Z,5.50
2023-04-01T23:53:48.692Z,6.28
2023-04-01T23:56:19.328Z,7.78
2023-04-01T23:58:53.873Z,5.67
